sensor_id;sensor_type;location;lat;lon;timestamp;temperature;humidity
23405;DHT22;11875;49.356;2.718;2023-08-30T00:02:05;16.80;99.90
23405;DHT22;11875;49.356;2.718;2023-08-30T00:04:31;16.70;99.90
23405;DHT22;11875;49.356;2.718;2023-08-30T00:06:56;16.70;99.90
23405;DHT22;11875;49.356;2.718;2023-08-30T00:09:22;16.60;99.90
23405;DHT22;11875;49.356;2.718;2023-08-30T00:11:47;16.60;99.90
23405;DHT22;11875;49.356;2.718;2023-08-30T00:14:13;16.50;99.90
23405;DHT22;11875;49.356;2.718;2023-08-30T00:16:38;16.50;99.90
23405;DHT22;11875;49.356;2.718;2023-08-30T00:19:04;16.40;99.90
23405;DHT22;11875;49.356;2.718;2023-08-30T00:21:30;16.40;99.90
23405;DHT22;11875;49.356;2.718;2023-08-30T00:23:55;16.40;99.90
23405;DHT22;11875;49.356;2.718;2023-08-30T00:26:21;16.40;99.90
23405;DHT22;11875;49.356;2.718;2023-08-30T00:28:47;16.30;99.90
23405;DHT22;11875;49.356;2.718;2023-08-30T00:31:12;16.30;99.90
23405;DHT22;11875;49.356;2.718;2023-08-30T00:33:38;16.20;99.90
23405;DHT22;11875;49.356;2.718;2023-08-30T00:36:04;16.30;99.90
23405;DHT22;11875;49.356;2.718;2023-08-30T00:38:30;16.20;99.90
23405;DHT22;11875;49.356;2.718;2023-08-30T00:40:56;16.20;99.90
23405;DHT22;11875;49.356;2.718;2023-08-30T00:43:21;16.20;99.90
23405;DHT22;11875;49.356;2.718;2023-08-30T00:45:47;16.20;99.90
23405;DHT22;11875;49.356;2.718;2023-08-30T00:48:14;16.10;99.90
23405;DHT22;11875;49.356;2.718;2023-08-30T00:50:42;16.10;99.90
23405;DHT22;11875;49.356;2.718;2023-08-30T00:53:08;16.00;99.90
23405;DHT22;11875;49.356;2.718;2023-08-30T00:55:37;16.00;99.90
23405;DHT22;11875;49.356;2.718;2023-08-30T00:58:03;16.00;99.90
23405;DHT22;11875;49.356;2.718;2023-08-30T01:00:33;16.00;99.90
23405;DHT22;11875;49.356;2.718;2023-08-30T01:02:58;16.00;99.90
23405;DHT22;11875;49.356;2.718;2023-08-30T01:05:24;16.00;99.90
23405;DHT22;11875;49.356;2.718;2023-08-30T01:07:51;16.00;99.90
23405;DHT22;11875;49.356;2.718;2023-08-30T01:10:18;16.00;99.90
23405;DHT22;11875;49.356;2.718;2023-08-30T01:12:49;16.00;99.90
23405;DHT22;11875;49.356;2.718;2023-08-30T01:15:22;16.00;99.90
23405;DHT22;11875;49.356;2.718;2023-08-30T01:17:49;16.00;99.90
23405;DHT22;11875;49.356;2.718;2023-08-30T01:20:17;16.00;99.90
23405;DHT22;11875;49.356;2.718;2023-08-30T01:23:05;16.00;99.90
23405;DHT22;11875;49.356;2.718;2023-08-30T01:25:57;15.90;99.90
23405;DHT22;11875;49.356;2.718;2023-08-30T01:28:24;15.90;99.90
23405;DHT22;11875;49.356;2.718;2023-08-30T01:30:52;15.90;99.90
23405;DHT22;11875;49.356;2.718;2023-08-30T01:33:20;15.90;99.90
23405;DHT22;11875;49.356;2.718;2023-08-30T01:35:47;15.90;99.90
23405;DHT22;11875;49.356;2.718;2023-08-30T01:38:13;15.90;99.90
23405;DHT22;11875;49.356;2.718;2023-08-30T01:40:41;16.00;99.90
23405;DHT22;11875;49.356;2.718;2023-08-30T01:43:09;16.10;99.90
23405;DHT22;11875;49.356;2.718;2023-08-30T01:45:39;16.10;99.90
23405;DHT22;11875;49.356;2.718;2023-08-30T01:48:09;16.20;99.90
23405;DHT22;11875;49.356;2.718;2023-08-30T01:50:35;16.20;99.90
23405;DHT22;11875;49.356;2.718;2023-08-30T01:53:03;16.10;99.90
23405;DHT22;11875;49.356;2.718;2023-08-30T01:55:29;16.10;99.90
23405;DHT22;11875;49.356;2.718;2023-08-30T01:57:55;16.10;99.90
23405;DHT22;11875;49.356;2.718;2023-08-30T02:00:21;16.20;99.90
23405;DHT22;11875;49.356;2.718;2023-08-30T02:02:48;16.30;99.90
23405;DHT22;11875;49.356;2.718;2023-08-30T02:05:14;16.50;99.90
23405;DHT22;11875;49.356;2.718;2023-08-30T02:07:58;16.30;99.90
23405;DHT22;11875;49.356;2.718;2023-08-30T02:10:35;16.30;99.90
23405;DHT22;11875;49.356;2.718;2023-08-30T02:13:04;16.30;99.90
23405;DHT22;11875;49.356;2.718;2023-08-30T02:15:32;16.40;99.90
23405;DHT22;11875;49.356;2.718;2023-08-30T02:17:59;16.30;99.90
23405;DHT22;11875;49.356;2.718;2023-08-30T02:20:25;16.40;99.90
23405;DHT22;11875;49.356;2.718;2023-08-30T02:22:51;16.40;99.90
23405;DHT22;11875;49.356;2.718;2023-08-30T02:25:16;16.50;99.90
23405;DHT22;11875;49.356;2.718;2023-08-30T02:27:42;16.50;99.90
23405;DHT22;11875;49.356;2.718;2023-08-30T02:30:08;16.50;99.90
23405;DHT22;11875;49.356;2.718;2023-08-30T02:32:34;16.50;99.90
23405;DHT22;11875;49.356;2.718;2023-08-30T02:35:00;16.60;99.90
23405;DHT22;11875;49.356;2.718;2023-08-30T02:37:25;16.60;99.90
23405;DHT22;11875;49.356;2.718;2023-08-30T02:39:51;16.70;99.90
23405;DHT22;11875;49.356;2.718;2023-08-30T02:42:17;16.70;99.90
23405;DHT22;11875;49.356;2.718;2023-08-30T02:44:42;16.60;99.90
23405;DHT22;11875;49.356;2.718;2023-08-30T02:47:08;16.70;99.90
23405;DHT22;11875;49.356;2.718;2023-08-30T02:49:34;16.70;99.90
23405;DHT22;11875;49.356;2.718;2023-08-30T02:51:59;16.70;99.90
23405;DHT22;11875;49.356;2.718;2023-08-30T02:54:25;16.70;99.90
23405;DHT22;11875;49.356;2.718;2023-08-30T02:56:51;16.80;99.90
23405;DHT22;11875;49.356;2.718;2023-08-30T02:59:16;16.80;99.90
23405;DHT22;11875;49.356;2.718;2023-08-30T03:01:42;16.80;99.90
23405;DHT22;11875;49.356;2.718;2023-08-30T03:04:08;16.80;99.90
23405;DHT22;11875;49.356;2.718;2023-08-30T03:06:35;16.80;99.90
23405;DHT22;11875;49.356;2.718;2023-08-30T03:09:01;16.90;99.90
23405;DHT22;11875;49.356;2.718;2023-08-30T03:11:27;16.90;99.90
23405;DHT22;11875;49.356;2.718;2023-08-30T03:13:55;16.90;99.90
23405;DHT22;11875;49.356;2.718;2023-08-30T03:16:21;16.90;99.90
23405;DHT22;11875;49.356;2.718;2023-08-30T03:18:47;16.90;99.90
23405;DHT22;11875;49.356;2.718;2023-08-30T03:21:13;17.00;99.90
23405;DHT22;11875;49.356;2.718;2023-08-30T03:23:40;17.00;99.90
23405;DHT22;11875;49.356;2.718;2023-08-30T03:26:14;16.90;99.90
23405;DHT22;11875;49.356;2.718;2023-08-30T03:28:41;16.90;99.90
23405;DHT22;11875;49.356;2.718;2023-08-30T03:33:37;16.70;99.90
23405;DHT22;11875;49.356;2.718;2023-08-30T03:36:03;16.80;99.90
23405;DHT22;11875;49.356;2.718;2023-08-30T03:38:28;16.70;99.90
23405;DHT22;11875;49.356;2.718;2023-08-30T03:40:54;16.80;99.90
23405;DHT22;11875;49.356;2.718;2023-08-30T03:43:19;16.70;99.90
23405;DHT22;11875;49.356;2.718;2023-08-30T03:45:46;16.70;99.90
23405;DHT22;11875;49.356;2.718;2023-08-30T03:48:11;16.70;99.90
23405;DHT22;11875;49.356;2.718;2023-08-30T03:50:37;16.80;99.90
23405;DHT22;11875;49.356;2.718;2023-08-30T03:53:03;16.80;99.90
23405;DHT22;11875;49.356;2.718;2023-08-30T03:55:28;16.60;99.90
23405;DHT22;11875;49.356;2.718;2023-08-30T03:57:54;16.60;99.90
23405;DHT22;11875;49.356;2.718;2023-08-30T04:00:19;16.40;99.90
23405;DHT22;11875;49.356;2.718;2023-08-30T04:02:45;16.40;99.90
23405;DHT22;11875;49.356;2.718;2023-08-30T04:05:11;16.50;99.90
23405;DHT22;11875;49.356;2.718;2023-08-30T04:07:36;16.50;99.90
23405;DHT22;11875;49.356;2.718;2023-08-30T04:10:02;16.60;99.90
23405;DHT22;11875;49.356;2.718;2023-08-30T04:12:31;16.50;99.90
23405;DHT22;11875;49.356;2.718;2023-08-30T04:14:57;16.50;99.90
23405;DHT22;11875;49.356;2.718;2023-08-30T04:17:22;16.50;99.90
23405;DHT22;11875;49.356;2.718;2023-08-30T04:19:51;16.50;99.90
23405;DHT22;11875;49.356;2.718;2023-08-30T04:22:17;16.40;99.90
23405;DHT22;11875;49.356;2.718;2023-08-30T04:24:43;16.50;99.90
23405;DHT22;11875;49.356;2.718;2023-08-30T04:27:08;16.60;99.90
23405;DHT22;11875;49.356;2.718;2023-08-30T04:29:34;16.70;99.90
23405;DHT22;11875;49.356;2.718;2023-08-30T04:32:00;16.80;99.90
23405;DHT22;11875;49.356;2.718;2023-08-30T04:34:26;16.80;99.90
23405;DHT22;11875;49.356;2.718;2023-08-30T04:36:51;16.80;99.90
23405;DHT22;11875;49.356;2.718;2023-08-30T04:39:17;16.90;99.90
23405;DHT22;11875;49.356;2.718;2023-08-30T04:41:43;16.90;99.90
23405;DHT22;11875;49.356;2.718;2023-08-30T04:44:08;16.90;99.90
23405;DHT22;11875;49.356;2.718;2023-08-30T04:46:34;16.80;99.90
23405;DHT22;11875;49.356;2.718;2023-08-30T04:49:00;16.80;99.90
23405;DHT22;11875;49.356;2.718;2023-08-30T04:51:25;16.70;99.90
23405;DHT22;11875;49.356;2.718;2023-08-30T04:53:51;16.80;99.90
23405;DHT22;11875;49.356;2.718;2023-08-30T04:56:16;16.70;99.90
23405;DHT22;11875;49.356;2.718;2023-08-30T04:58:43;16.60;99.90
23405;DHT22;11875;49.356;2.718;2023-08-30T05:01:09;16.70;99.90
23405;DHT22;11875;49.356;2.718;2023-08-30T05:03:36;16.70;99.90
23405;DHT22;11875;49.356;2.718;2023-08-30T05:06:02;16.80;99.90
23405;DHT22;11875;49.356;2.718;2023-08-30T05:08:28;16.80;99.90
23405;DHT22;11875;49.356;2.718;2023-08-30T05:10:54;16.90;99.90
23405;DHT22;11875;49.356;2.718;2023-08-30T05:13:20;16.80;99.90
23405;DHT22;11875;49.356;2.718;2023-08-30T05:15:46;16.90;99.90
23405;DHT22;11875;49.356;2.718;2023-08-30T05:18:11;16.90;99.90
23405;DHT22;11875;49.356;2.718;2023-08-30T05:20:37;16.90;99.90
23405;DHT22;11875;49.356;2.718;2023-08-30T05:23:02;16.90;99.90
23405;DHT22;11875;49.356;2.718;2023-08-30T05:25:28;16.80;99.90
23405;DHT22;11875;49.356;2.718;2023-08-30T05:27:54;16.70;99.90
23405;DHT22;11875;49.356;2.718;2023-08-30T05:30:20;16.70;99.90
23405;DHT22;11875;49.356;2.718;2023-08-30T05:32:45;16.60;99.90
23405;DHT22;11875;49.356;2.718;2023-08-30T05:35:11;16.60;99.90
23405;DHT22;11875;49.356;2.718;2023-08-30T05:37:37;16.60;99.90
23405;DHT22;11875;49.356;2.718;2023-08-30T05:40:03;16.50;99.90
23405;DHT22;11875;49.356;2.718;2023-08-30T05:42:29;16.50;99.90
23405;DHT22;11875;49.356;2.718;2023-08-30T05:44:55;16.50;99.90
23405;DHT22;11875;49.356;2.718;2023-08-30T05:47:20;16.60;99.90
23405;DHT22;11875;49.356;2.718;2023-08-30T05:49:46;16.70;99.90
23405;DHT22;11875;49.356;2.718;2023-08-30T05:52:12;16.70;99.90
23405;DHT22;11875;49.356;2.718;2023-08-30T05:54:38;16.80;99.90
23405;DHT22;11875;49.356;2.718;2023-08-30T05:57:03;16.90;99.90
23405;DHT22;11875;49.356;2.718;2023-08-30T05:59:29;17.00;99.90
23405;DHT22;11875;49.356;2.718;2023-08-30T06:01:55;16.50;99.90
23405;DHT22;11875;49.356;2.718;2023-08-30T06:04:21;17.00;99.90
23405;DHT22;11875;49.356;2.718;2023-08-30T06:06:47;16.90;99.90
23405;DHT22;11875;49.356;2.718;2023-08-30T06:09:13;16.90;99.90
23405;DHT22;11875;49.356;2.718;2023-08-30T06:11:38;17.00;99.90
23405;DHT22;11875;49.356;2.718;2023-08-30T06:14:04;17.00;99.90
23405;DHT22;11875;49.356;2.718;2023-08-30T06:16:30;17.10;99.90
23405;DHT22;11875;49.356;2.718;2023-08-30T06:18:56;17.10;99.90
23405;DHT22;11875;49.356;2.718;2023-08-30T06:21:24;17.00;99.90
23405;DHT22;11875;49.356;2.718;2023-08-30T06:23:50;17.10;99.90
23405;DHT22;11875;49.356;2.718;2023-08-30T06:26:16;17.10;99.90
23405;DHT22;11875;49.356;2.718;2023-08-30T06:28:41;17.10;99.90
23405;DHT22;11875;49.356;2.718;2023-08-30T06:31:08;16.90;99.90
23405;DHT22;11875;49.356;2.718;2023-08-30T06:33:34;17.00;99.90
23405;DHT22;11875;49.356;2.718;2023-08-30T06:35:59;17.00;99.90
23405;DHT22;11875;49.356;2.718;2023-08-30T06:38:25;16.90;99.90
23405;DHT22;11875;49.356;2.718;2023-08-30T06:40:50;17.00;99.90
23405;DHT22;11875;49.356;2.718;2023-08-30T06:43:16;16.90;99.90
23405;DHT22;11875;49.356;2.718;2023-08-30T06:45:42;16.90;99.90
23405;DHT22;11875;49.356;2.718;2023-08-30T06:48:08;16.80;99.90
23405;DHT22;11875;49.356;2.718;2023-08-30T06:50:34;16.70;99.90
23405;DHT22;11875;49.356;2.718;2023-08-30T06:53:03;16.50;99.90
23405;DHT22;11875;49.356;2.718;2023-08-30T06:55:29;16.50;99.90
23405;DHT22;11875;49.356;2.718;2023-08-30T06:57:55;16.40;99.90
23405;DHT22;11875;49.356;2.718;2023-08-30T07:00:21;16.40;99.90
23405;DHT22;11875;49.356;2.718;2023-08-30T07:02:47;16.40;99.90
23405;DHT22;11875;49.356;2.718;2023-08-30T07:05:13;16.50;99.90
23405;DHT22;11875;49.356;2.718;2023-08-30T07:07:39;16.60;99.90
23405;DHT22;11875;49.356;2.718;2023-08-30T07:10:05;16.60;99.90
23405;DHT22;11875;49.356;2.718;2023-08-30T07:12:31;16.70;99.90
23405;DHT22;11875;49.356;2.718;2023-08-30T07:14:56;16.70;99.90
23405;DHT22;11875;49.356;2.718;2023-08-30T07:17:22;16.70;99.90
23405;DHT22;11875;49.356;2.718;2023-08-30T07:19:49;16.80;99.90
23405;DHT22;11875;49.356;2.718;2023-08-30T07:22:15;16.90;99.90
23405;DHT22;11875;49.356;2.718;2023-08-30T07:24:44;17.00;99.90
23405;DHT22;11875;49.356;2.718;2023-08-30T07:27:10;17.10;99.90
23405;DHT22;11875;49.356;2.718;2023-08-30T07:29:36;17.10;99.90
23405;DHT22;11875;49.356;2.718;2023-08-30T07:32:02;17.00;99.90
23405;DHT22;11875;49.356;2.718;2023-08-30T07:34:28;17.10;99.90
23405;DHT22;11875;49.356;2.718;2023-08-30T07:36:54;17.00;99.90
23405;DHT22;11875;49.356;2.718;2023-08-30T07:39:21;17.00;99.90
23405;DHT22;11875;49.356;2.718;2023-08-30T07:41:46;17.00;99.90
23405;DHT22;11875;49.356;2.718;2023-08-30T07:44:12;17.10;99.90
23405;DHT22;11875;49.356;2.718;2023-08-30T07:46:37;17.10;99.90
23405;DHT22;11875;49.356;2.718;2023-08-30T07:49:03;17.10;99.90
23405;DHT22;11875;49.356;2.718;2023-08-30T07:51:29;17.30;99.90
23405;DHT22;11875;49.356;2.718;2023-08-30T07:53:54;17.30;99.90
23405;DHT22;11875;49.356;2.718;2023-08-30T07:56:20;17.20;99.90
23405;DHT22;11875;49.356;2.718;2023-08-30T07:58:46;17.30;99.90
23405;DHT22;11875;49.356;2.718;2023-08-30T08:01:11;17.40;99.90
23405;DHT22;11875;49.356;2.718;2023-08-30T08:03:37;17.40;99.90
23405;DHT22;11875;49.356;2.718;2023-08-30T08:06:03;17.50;99.90
23405;DHT22;11875;49.356;2.718;2023-08-30T08:08:28;17.50;99.90
23405;DHT22;11875;49.356;2.718;2023-08-30T08:10:54;17.50;99.90
23405;DHT22;11875;49.356;2.718;2023-08-30T08:13:20;17.50;99.90
23405;DHT22;11875;49.356;2.718;2023-08-30T08:15:45;17.50;99.90
23405;DHT22;11875;49.356;2.718;2023-08-30T08:18:11;17.50;99.90
23405;DHT22;11875;49.356;2.718;2023-08-30T08:20:37;17.50;99.90
23405;DHT22;11875;49.356;2.718;2023-08-30T08:23:03;17.60;99.90
23405;DHT22;11875;49.356;2.718;2023-08-30T08:25:28;17.70;99.90
23405;DHT22;11875;49.356;2.718;2023-08-30T08:27:54;17.70;99.90
23405;DHT22;11875;49.356;2.718;2023-08-30T08:30:20;17.80;99.90
23405;DHT22;11875;49.356;2.718;2023-08-30T08:32:47;17.90;99.90
23405;DHT22;11875;49.356;2.718;2023-08-30T08:35:15;18.00;99.90
23405;DHT22;11875;49.356;2.718;2023-08-30T08:37:41;18.10;99.90
23405;DHT22;11875;49.356;2.718;2023-08-30T08:40:07;18.20;99.90
23405;DHT22;11875;49.356;2.718;2023-08-30T08:42:36;18.40;99.90
23405;DHT22;11875;49.356;2.718;2023-08-30T08:45:03;18.70;99.90
23405;DHT22;11875;49.356;2.718;2023-08-30T08:47:32;18.90;99.90
23405;DHT22;11875;49.356;2.718;2023-08-30T08:49:59;19.20;99.90
23405;DHT22;11875;49.356;2.718;2023-08-30T08:52:25;19.40;99.90
23405;DHT22;11875;49.356;2.718;2023-08-30T08:54:52;19.40;99.90
23405;DHT22;11875;49.356;2.718;2023-08-30T08:57:19;19.40;99.90
23405;DHT22;11875;49.356;2.718;2023-08-30T08:59:44;19.60;99.90
23405;DHT22;11875;49.356;2.718;2023-08-30T09:02:13;19.80;99.90
23405;DHT22;11875;49.356;2.718;2023-08-30T09:04:39;19.90;99.90
23405;DHT22;11875;49.356;2.718;2023-08-30T09:07:05;19.90;99.90
23405;DHT22;11875;49.356;2.718;2023-08-30T09:09:31;20.00;99.90
23405;DHT22;11875;49.356;2.718;2023-08-30T09:11:56;20.30;99.90
23405;DHT22;11875;49.356;2.718;2023-08-30T09:14:22;20.30;99.90
23405;DHT22;11875;49.356;2.718;2023-08-30T09:16:58;20.30;99.90
23405;DHT22;11875;49.356;2.718;2023-08-30T09:19:25;20.40;99.90
23405;DHT22;11875;49.356;2.718;2023-08-30T09:24:18;20.40;99.90
23405;DHT22;11875;49.356;2.718;2023-08-30T09:26:47;20.40;99.90
23405;DHT22;11875;49.356;2.718;2023-08-30T09:29:14;20.50;99.90
23405;DHT22;11875;49.356;2.718;2023-08-30T09:31:41;20.40;99.90
23405;DHT22;11875;49.356;2.718;2023-08-30T09:34:07;20.30;99.90
23405;DHT22;11875;49.356;2.718;2023-08-30T09:36:34;20.30;99.90
23405;DHT22;11875;49.356;2.718;2023-08-30T09:39:04;20.30;99.90
23405;DHT22;11875;49.356;2.718;2023-08-30T09:41:30;20.30;99.90
23405;DHT22;11875;49.356;2.718;2023-08-30T09:43:58;20.50;99.90
23405;DHT22;11875;49.356;2.718;2023-08-30T09:46:25;20.60;99.90
23405;DHT22;11875;49.356;2.718;2023-08-30T09:48:50;20.70;99.90
23405;DHT22;11875;49.356;2.718;2023-08-30T09:51:17;20.60;99.90
23405;DHT22;11875;49.356;2.718;2023-08-30T09:53:45;20.40;99.90
23405;DHT22;11875;49.356;2.718;2023-08-30T09:56:14;20.40;99.90
23405;DHT22;11875;49.356;2.718;2023-08-30T09:58:40;20.50;99.90
23405;DHT22;11875;49.356;2.718;2023-08-30T10:01:07;20.60;99.90
23405;DHT22;11875;49.356;2.718;2023-08-30T10:03:34;20.50;99.90
23405;DHT22;11875;49.356;2.718;2023-08-30T10:06:01;20.60;99.90
23405;DHT22;11875;49.356;2.718;2023-08-30T10:08:31;20.50;99.90
23405;DHT22;11875;49.356;2.718;2023-08-30T10:10:58;20.40;99.90
23405;DHT22;11875;49.356;2.718;2023-08-30T10:13:25;20.30;99.90
23405;DHT22;11875;49.356;2.718;2023-08-30T10:15:55;20.40;99.90
23405;DHT22;11875;49.356;2.718;2023-08-30T10:18:25;20.50;99.90
23405;DHT22;11875;49.356;2.718;2023-08-30T10:20:54;20.50;99.90
23405;DHT22;11875;49.356;2.718;2023-08-30T10:23:21;20.60;99.90
23405;DHT22;11875;49.356;2.718;2023-08-30T10:25:49;20.70;99.90
23405;DHT22;11875;49.356;2.718;2023-08-30T10:28:18;20.70;99.90
23405;DHT22;11875;49.356;2.718;2023-08-30T10:30:45;20.90;99.90
23405;DHT22;11875;49.356;2.718;2023-08-30T10:33:14;20.90;99.90
23405;DHT22;11875;49.356;2.718;2023-08-30T10:35:49;20.90;99.90
23405;DHT22;11875;49.356;2.718;2023-08-30T10:38:27;21.00;99.90
23405;DHT22;11875;49.356;2.718;2023-08-30T10:40:53;21.00;99.90
23405;DHT22;11875;49.356;2.718;2023-08-30T10:43:28;21.00;99.90
23405;DHT22;11875;49.356;2.718;2023-08-30T10:46:05;21.10;99.90
23405;DHT22;11875;49.356;2.718;2023-08-30T10:48:40;21.10;99.90
23405;DHT22;11875;49.356;2.718;2023-08-30T10:51:21;21.10;99.90
23405;DHT22;11875;49.356;2.718;2023-08-30T10:53:57;21.50;99.90
23405;DHT22;11875;49.356;2.718;2023-08-30T10:56:28;21.70;99.90
23405;DHT22;11875;49.356;2.718;2023-08-30T10:58:54;21.80;99.90
23405;DHT22;11875;49.356;2.718;2023-08-30T11:01:20;21.60;99.90
23405;DHT22;11875;49.356;2.718;2023-08-30T11:03:46;21.30;99.90
23405;DHT22;11875;49.356;2.718;2023-08-30T11:06:14;21.10;99.90
23405;DHT22;11875;49.356;2.718;2023-08-30T11:08:41;21.00;99.90
23405;DHT22;11875;49.356;2.718;2023-08-30T11:11:08;20.90;99.90
23405;DHT22;11875;49.356;2.718;2023-08-30T11:13:35;20.90;99.90
23405;DHT22;11875;49.356;2.718;2023-08-30T11:16:01;20.90;99.90
23405;DHT22;11875;49.356;2.718;2023-08-30T11:18:38;20.90;99.90
23405;DHT22;11875;49.356;2.718;2023-08-30T11:21:08;20.70;99.90
23405;DHT22;11875;49.356;2.718;2023-08-30T11:23:34;20.80;99.90
23405;DHT22;11875;49.356;2.718;2023-08-30T11:26:01;20.70;99.90
23405;DHT22;11875;49.356;2.718;2023-08-30T11:28:29;20.70;99.90
23405;DHT22;11875;49.356;2.718;2023-08-30T11:30:55;20.70;99.90
23405;DHT22;11875;49.356;2.718;2023-08-30T11:33:21;20.80;99.90
23405;DHT22;11875;49.356;2.718;2023-08-30T11:35:50;20.90;99.90
23405;DHT22;11875;49.356;2.718;2023-08-30T11:38:17;21.00;99.90
23405;DHT22;11875;49.356;2.718;2023-08-30T11:40:44;21.00;99.90
23405;DHT22;11875;49.356;2.718;2023-08-30T11:43:10;21.00;99.90
23405;DHT22;11875;49.356;2.718;2023-08-30T11:45:36;21.10;99.90
23405;DHT22;11875;49.356;2.718;2023-08-30T11:48:01;21.20;99.90
23405;DHT22;11875;49.356;2.718;2023-08-30T11:50:28;21.30;99.90
23405;DHT22;11875;49.356;2.718;2023-08-30T11:52:54;21.40;99.90
23405;DHT22;11875;49.356;2.718;2023-08-30T11:55:21;21.50;99.90
23405;DHT22;11875;49.356;2.718;2023-08-30T11:57:50;21.80;99.90
23405;DHT22;11875;49.356;2.718;2023-08-30T12:00:18;21.90;99.90
23405;DHT22;11875;49.356;2.718;2023-08-30T12:02:46;21.90;99.90
23405;DHT22;11875;49.356;2.718;2023-08-30T12:05:13;21.90;99.90
23405;DHT22;11875;49.356;2.718;2023-08-30T12:07:39;21.80;99.90
23405;DHT22;11875;49.356;2.718;2023-08-30T12:10:06;21.80;99.90
23405;DHT22;11875;49.356;2.718;2023-08-30T12:12:33;21.90;99.90
23405;DHT22;11875;49.356;2.718;2023-08-30T12:14:58;21.90;99.90
23405;DHT22;11875;49.356;2.718;2023-08-30T12:17:24;22.00;99.90
23405;DHT22;11875;49.356;2.718;2023-08-30T12:19:57;22.00;99.90
23405;DHT22;11875;49.356;2.718;2023-08-30T12:22:22;22.00;99.90
23405;DHT22;11875;49.356;2.718;2023-08-30T12:24:48;21.80;99.90
23405;DHT22;11875;49.356;2.718;2023-08-30T12:27:14;21.70;99.90
23405;DHT22;11875;49.356;2.718;2023-08-30T12:29:40;21.70;99.90
23405;DHT22;11875;49.356;2.718;2023-08-30T12:32:07;21.50;99.90
23405;DHT22;11875;49.356;2.718;2023-08-30T12:34:33;21.50;99.90
23405;DHT22;11875;49.356;2.718;2023-08-30T12:36:59;21.40;99.90
23405;DHT22;11875;49.356;2.718;2023-08-30T12:39:24;21.30;99.90
23405;DHT22;11875;49.356;2.718;2023-08-30T12:41:50;21.30;99.90
23405;DHT22;11875;49.356;2.718;2023-08-30T12:44:16;21.30;99.90
23405;DHT22;11875;49.356;2.718;2023-08-30T12:46:41;21.40;99.90
23405;DHT22;11875;49.356;2.718;2023-08-30T12:49:07;21.40;99.90
23405;DHT22;11875;49.356;2.718;2023-08-30T12:51:32;21.50;99.90
23405;DHT22;11875;49.356;2.718;2023-08-30T12:53:58;21.70;99.90
23405;DHT22;11875;49.356;2.718;2023-08-30T12:56:23;22.00;99.90
23405;DHT22;11875;49.356;2.718;2023-08-30T12:58:49;21.80;99.90
23405;DHT22;11875;49.356;2.718;2023-08-30T13:01:16;21.80;99.90
23405;DHT22;11875;49.356;2.718;2023-08-30T13:03:42;22.00;99.90
23405;DHT22;11875;49.356;2.718;2023-08-30T13:06:07;22.20;99.90
23405;DHT22;11875;49.356;2.718;2023-08-30T13:08:33;22.30;99.90
23405;DHT22;11875;49.356;2.718;2023-08-30T13:10:59;22.40;99.90
23405;DHT22;11875;49.356;2.718;2023-08-30T13:13:25;22.30;99.90
23405;DHT22;11875;49.356;2.718;2023-08-30T13:15:51;22.30;99.90
23405;DHT22;11875;49.356;2.718;2023-08-30T13:18:17;22.30;99.90
23405;DHT22;11875;49.356;2.718;2023-08-30T13:20:43;22.20;99.90
23405;DHT22;11875;49.356;2.718;2023-08-30T13:23:08;22.20;99.90
23405;DHT22;11875;49.356;2.718;2023-08-30T13:25:38;22.10;99.90
23405;DHT22;11875;49.356;2.718;2023-08-30T13:28:04;22.00;99.90
23405;DHT22;11875;49.356;2.718;2023-08-30T13:30:30;22.00;99.90
23405;DHT22;11875;49.356;2.718;2023-08-30T13:32:55;21.90;99.90
23405;DHT22;11875;49.356;2.718;2023-08-30T13:35:21;21.80;99.90
23405;DHT22;11875;49.356;2.718;2023-08-30T13:37:47;21.80;99.90
23405;DHT22;11875;49.356;2.718;2023-08-30T13:40:13;21.80;99.90
23405;DHT22;11875;49.356;2.718;2023-08-30T13:42:38;21.70;99.90
23405;DHT22;11875;49.356;2.718;2023-08-30T13:45:04;21.70;99.90
23405;DHT22;11875;49.356;2.718;2023-08-30T13:47:31;21.80;99.90
23405;DHT22;11875;49.356;2.718;2023-08-30T13:49:57;21.90;99.90
23405;DHT22;11875;49.356;2.718;2023-08-30T13:52:25;22.00;99.70
23405;DHT22;11875;49.356;2.718;2023-08-30T13:54:51;22.00;99.20
23405;DHT22;11875;49.356;2.718;2023-08-30T13:57:17;22.10;99.60
23405;DHT22;11875;49.356;2.718;2023-08-30T13:59:42;22.10;98.50
23405;DHT22;11875;49.356;2.718;2023-08-30T14:02:08;22.10;98.40
23405;DHT22;11875;49.356;2.718;2023-08-30T14:04:34;22.10;99.20
23405;DHT22;11875;49.356;2.718;2023-08-30T14:07:02;22.10;98.00
23405;DHT22;11875;49.356;2.718;2023-08-30T14:09:29;22.20;98.60
23405;DHT22;11875;49.356;2.718;2023-08-30T14:11:54;22.20;99.10
23405;DHT22;11875;49.356;2.718;2023-08-30T14:14:21;22.10;99.40
23405;DHT22;11875;49.356;2.718;2023-08-30T14:16:46;22.00;99.90
23405;DHT22;11875;49.356;2.718;2023-08-30T14:19:12;22.00;99.90
23405;DHT22;11875;49.356;2.718;2023-08-30T14:21:37;21.90;99.90
23405;DHT22;11875;49.356;2.718;2023-08-30T14:24:03;21.90;99.90
23405;DHT22;11875;49.356;2.718;2023-08-30T14:26:29;22.00;99.90
23405;DHT22;11875;49.356;2.718;2023-08-30T14:28:55;22.10;99.90
23405;DHT22;11875;49.356;2.718;2023-08-30T14:31:20;22.10;99.90
23405;DHT22;11875;49.356;2.718;2023-08-30T14:33:46;22.10;99.70
23405;DHT22;11875;49.356;2.718;2023-08-30T14:36:13;22.10;99.90
23405;DHT22;11875;49.356;2.718;2023-08-30T14:38:39;22.20;99.90
23405;DHT22;11875;49.356;2.718;2023-08-30T14:41:06;22.30;99.90
23405;DHT22;11875;49.356;2.718;2023-08-30T14:43:32;22.40;99.20
23405;DHT22;11875;49.356;2.718;2023-08-30T14:46:05;22.50;99.00
23405;DHT22;11875;49.356;2.718;2023-08-30T14:48:34;22.50;99.20
23405;DHT22;11875;49.356;2.718;2023-08-30T14:51:01;22.40;99.00
23405;DHT22;11875;49.356;2.718;2023-08-30T14:53:27;22.20;99.10
23405;DHT22;11875;49.356;2.718;2023-08-30T14:55:53;22.00;99.00
23405;DHT22;11875;49.356;2.718;2023-08-30T14:58:20;21.70;99.10
23405;DHT22;11875;49.356;2.718;2023-08-30T15:00:49;21.50;99.80
23405;DHT22;11875;49.356;2.718;2023-08-30T15:03:15;21.50;99.40
23405;DHT22;11875;49.356;2.718;2023-08-30T15:05:41;21.50;99.80
23405;DHT22;11875;49.356;2.718;2023-08-30T15:08:07;21.60;99.40
23405;DHT22;11875;49.356;2.718;2023-08-30T15:10:33;21.60;99.50
23405;DHT22;11875;49.356;2.718;2023-08-30T15:12:58;21.70;98.60
23405;DHT22;11875;49.356;2.718;2023-08-30T15:15:24;21.70;98.10
23405;DHT22;11875;49.356;2.718;2023-08-30T15:17:49;21.60;98.50
23405;DHT22;11875;49.356;2.718;2023-08-30T15:20:15;21.60;98.80
23405;DHT22;11875;49.356;2.718;2023-08-30T15:22:41;21.60;98.40
23405;DHT22;11875;49.356;2.718;2023-08-30T15:25:06;21.60;98.30
23405;DHT22;11875;49.356;2.718;2023-08-30T15:27:35;21.60;97.20
23405;DHT22;11875;49.356;2.718;2023-08-30T15:30:02;21.60;96.70
23405;DHT22;11875;49.356;2.718;2023-08-30T15:32:28;21.60;97.10